Time;durP1;ratioP1;P1;durP2;ratioP2;P2;SDS_P1;SDS_P2;PMS_P1;PMS_P2;Temp;Humidity;BMP_temperature;BMP_pressure;BME280_temperature;BME280_humidity;BME280_pressure;Samples;Min_cycle;Max_cycle;Signal;HPM_P1;HPM_P2
2024/01/26 00:00:50;;;;;;;17.60;3.70;;;;;;;5.07;85.11;101452.67;111146;1208;99466;-66
2024/01/26 00:03:16;;;;;;;20.10;3.80;;;;;;;5.09;85.27;101452.48;111012;1208;139460;-67
2024/01/26 00:05:41;;;;;;;25.40;3.40;;;;;;;5.11;85.21;101458.32;111043;1203;99657;-66
2024/01/26 00:08:06;;;;;;;16.40;3.40;;;;;;;5.11;85.12;101459.73;111156;1206;99039;-66
2024/01/26 00:10:31;;;;;;;18.30;3.50;;;;;;;5.07;85.01;101459.05;110939;1204;139841;-66
2024/01/26 00:12:57;;;;;;;13.80;3.20;;;;;;;5.08;85.24;101457.80;111166;1206;100392;-66
2024/01/26 00:15:22;;;;;;;20.10;3.70;;;;;;;5.07;85.19;101460.48;110975;1208;139464;-67
2024/01/26 00:17:47;;;;;;;23.40;5.20;;;;;;;5.08;85.28;101459.58;110991;1203;99058;-66
2024/01/26 00:20:13;;;;;;;19.70;4.10;;;;;;;5.06;85.05;101472.88;111147;1209;99027;-66
2024/01/26 00:22:38;;;;;;;19.60;4.20;;;;;;;5.03;85.08;101480.34;110868;1206;138649;-66
2024/01/26 00:25:05;;;;;;;21.60;5.00;;;;;;;4.98;85.12;101474.71;111093;1209;100034;-66
2024/01/26 00:27:30;;;;;;;12.00;3.00;;;;;;;4.98;85.10;101473.48;111015;1208;141015;-67
2024/01/26 00:29:56;;;;;;;23.00;4.20;;;;;;;4.98;85.07;101477.89;111049;1206;100278;-66
2024/01/26 00:32:21;;;;;;;22.10;4.10;;;;;;;4.96;85.07;101480.05;111199;1206;98125;-66
2024/01/26 00:34:46;;;;;;;14.60;3.40;;;;;;;4.94;85.12;101479.17;110930;1207;139786;-67
2024/01/26 00:37:13;;;;;;;23.80;4.90;;;;;;;4.94;85.16;101477.41;111089;1206;99816;-66
2024/01/26 00:39:39;;;;;;;13.00;3.90;;;;;;;4.96;85.19;101481.81;110917;1219;138700;-66
2024/01/26 00:42:04;;;;;;;21.60;4.60;;;;;;;4.96;85.13;101481.81;111100;1209;99101;-66
2024/01/26 00:44:29;;;;;;;18.10;5.40;;;;;;;4.95;85.14;101489.08;111181;1203;98960;-66
2024/01/26 00:46:54;;;;;;;22.80;6.00;;;;;;;4.91;84.98;101488.75;110850;1207;139372;-66
2024/01/26 00:49:20;;;;;;;19.50;5.40;;;;;;;4.87;85.22;101482.05;111037;1206;99769;-66
2024/01/26 00:51:45;;;;;;;21.70;5.50;;;;;;;4.90;85.24;101483.45;110867;1206;138839;-66
2024/01/26 00:54:10;;;;;;;31.30;7.40;;;;;;;4.93;85.31;101493.52;111055;1209;100465;-66
2024/01/26 00:56:36;;;;;;;22.80;5.90;;;;;;;4.92;85.16;101499.73;111038;1218;98354;-66
2024/01/26 00:59:03;;;;;;;23.50;7.70;;;;;;;4.90;85.17;101501.33;110979;1206;139207;-66
2024/01/26 01:01:28;;;;;;;25.70;6.90;;;;;;;4.91;85.17;101497.61;111177;1205;98929;-66
2024/01/26 01:03:53;;;;;;;24.40;6.10;;;;;;;4.90;85.20;101499.56;110966;1208;140460;-66
2024/01/26 01:06:19;;;;;;;23.00;7.40;;;;;;;4.92;85.13;101499.37;111118;1208;98918;-66
2024/01/26 01:08:44;;;;;;;24.80;7.00;;;;;;;4.94;85.26;101504.50;111032;1208;99036;-65
2024/01/26 01:11:09;;;;;;;17.20;6.70;;;;;;;4.93;85.17;101509.81;110943;1206;140313;-66
2024/01/26 01:13:35;;;;;;;18.90;6.70;;;;;;;4.88;85.10;101508.07;110965;1209;98951;-66
2024/01/26 01:16:00;;;;;;;23.30;6.90;;;;;;;4.86;85.26;101503.30;111069;1208;140270;-66
2024/01/26 01:18:26;;;;;;;26.40;7.00;;;;;;;4.88;85.23;101513.92;111115;1209;99021;-66
2024/01/26 01:20:51;;;;;;;28.40;9.40;;;;;;;4.87;85.14;101511.09;111116;1206;98901;-66
2024/01/26 01:23:16;;;;;;;26.40;7.30;;;;;;;4.87;85.31;101515.16;111038;1209;138723;-66
2024/01/26 01:25:42;;;;;;;30.00;8.60;;;;;;;4.86;85.23;101520.13;111026;1206;99094;-66
2024/01/26 01:28:07;;;;;;;21.90;8.20;;;;;;;4.86;85.15;101520.66;111087;1206;138668;-66
2024/01/26 01:30:33;;;;;;;28.20;7.90;;;;;;;4.86;85.15;101521.89;111079;1208;99087;-66
2024/01/26 01:32:59;;;;;;;16.60;6.30;;;;;;;4.85;85.15;101524.92;111097;1206;98990;-67
2024/01/26 01:35:24;;;;;;;24.40;6.70;;;;;;;4.86;85.15;101525.79;111070;1203;138762;-66
2024/01/26 01:37:50;;;;;;;20.10;6.80;;;;;;;4.87;85.31;101526.67;111017;1208;98938;-66
2024/01/26 01:40:15;;;;;;;15.50;6.60;;;;;;;4.91;85.24;101527.72;111055;1208;140197;-66
2024/01/26 01:42:41;;;;;;;28.50;7.50;;;;;;;4.92;85.26;101534.43;111014;1206;97917;-66
2024/01/26 01:45:16;;;;;;;20.60;7.00;;;;;;;4.93;85.21;101528.76;111251;1208;99127;-66
2024/01/26 01:47:42;;;;;;;22.10;6.30;;;;;;;4.95;85.28;101526.63;110967;1208;108087;-66
2024/01/26 01:50:08;;;;;;;28.10;6.90;;;;;;;4.96;85.20;101526.45;111092;1206;97912;-66
2024/01/26 01:52:39;;;;;;;23.10;7.10;;;;;;;4.93;85.06;101528.05;110897;1208;138739;-66
2024/01/26 01:55:08;;;;;;;23.80;7.10;;;;;;;4.93;85.32;101525.92;111157;1206;113097;-66
2024/01/26 01:57:37;;;;;;;25.40;7.50;;;;;;;4.94;85.25;101524.16;110898;1208;140389;-66
2024/01/26 02:00:04;;;;;;;17.80;6.40;;;;;;;4.92;84.90;101526.11;111210;1203;107756;-66
2024/01/26 02:02:29;;;;;;;20.70;6.60;;;;;;;4.88;85.06;101527.38;111133;1209;100171;-66
2024/01/26 02:04:55;;;;;;;25.20;6.30;;;;;;;4.86;85.15;101525.80;110996;1208;139417;-66
2024/01/26 02:07:20;;;;;;;18.40;6.60;;;;;;;4.86;84.96;101523.32;111094;1208;99625;-66
2024/01/26 02:09:46;;;;;;;21.20;6.40;;;;;;;4.87;85.18;101524.90;110872;1207;139783;-66
2024/01/26 02:12:11;;;;;;;22.10;6.20;;;;;;;4.88;84.97;101519.94;111215;1203;97853;-66
2024/01/26 02:14:36;;;;;;;26.80;7.80;;;;;;;4.88;85.20;101523.83;111039;1203;99059;-66
2024/01/26 02:17:02;;;;;;;18.40;6.40;;;;;;;4.90;85.03;101527.01;111029;1204;139683;-66
2024/01/26 02:19:32;;;;;;;33.80;6.90;;;;;;;4.90;85.07;101524.17;111092;1208;98946;-66
2024/01/26 02:21:57;;;;;;;25.80;7.20;;;;;;;4.90;85.03;101522.05;110996;1209;138610;-66
2024/01/26 02:24:22;;;;;;;17.90;5.90;;;;;;;4.89;84.99;101527.19;111117;1206;98928;-67
2024/01/26 02:26:48;;;;;;;17.90;6.00;;;;;;;4.85;84.96;101524.20;111105;1209;99075;-66
2024/01/26 02:29:14;;;;;;;24.00;6.20;;;;;;;4.84;84.88;101522.98;110950;1203;138982;-66
2024/01/26 02:31:39;;;;;;;18.50;5.80;;;;;;;4.83;84.93;101519.08;111145;1203;98954;-67
2024/01/26 02:34:06;;;;;;;25.70;6.20;;;;;;;4.82;84.91;101520.68;110917;1206;139602;-67
2024/01/26 02:36:33;;;;;;;20.60;5.40;;;;;;;4.81;84.93;101517.33;111022;1209;99003;-67
2024/01/26 02:38:58;;;;;;;25.40;6.10;;;;;;;4.81;85.06;101521.75;111096;1209;98953;-66
2024/01/26 02:41:24;;;;;;;11.80;4.00;;;;;;;4.82;84.93;101524.58;111044;1208;140609;-67
2024/01/26 02:43:49;;;;;;;13.60;4.20;;;;;;;4.81;85.00;101521.93;111029;1209;99018;-66
2024/01/26 02:46:15;;;;;;;27.10;4.20;;;;;;;4.79;84.91;101526.00;110956;1206;138745;-67
2024/01/26 02:48:40;;;;;;;14.40;3.70;;;;;;;4.79;84.99;101525.13;111039;1208;99050;-66
2024/01/26 02:51:06;;;;;;;19.60;5.20;;;;;;;4.76;84.95;101530.63;111107;1206;99116;-67
2024/01/26 02:53:31;;;;;;;24.70;4.30;;;;;;;4.76;84.93;101534.35;110940;1208;138720;-67
2024/01/26 02:55:57;;;;;;;21.80;4.20;;;;;;;4.74;84.96;101530.46;111055;1216;99407;-66
2024/01/26 02:58:23;;;;;;;19.40;3.80;;;;;;;4.73;84.96;101530.11;111026;1208;140255;-67
2024/01/26 03:00:48;;;;;;;16.20;3.60;;;;;;;4.73;85.02;101530.29;111128;1208;98979;-67
2024/01/26 03:03:13;;;;;;;20.40;4.30;;;;;;;4.73;85.07;101527.46;111124;1209;98915;-67
2024/01/26 03:05:39;;;;;;;15.00;3.60;;;;;;;4.75;84.96;101533.83;110883;1209;138375;-67
2024/01/26 03:08:07;;;;;;;16.10;3.60;;;;;;;4.75;85.07;101531.34;111145;1203;100564;-67
2024/01/26 03:10:33;;;;;;;12.00;3.00;;;;;;;4.75;84.94;101532.23;110916;1209;138845;-66
2024/01/26 03:12:58;;;;;;;22.30;3.40;;;;;;;4.73;84.95;101527.28;111252;1206;99392;-66
2024/01/26 03:15:23;;;;;;;23.40;4.50;;;;;;;4.74;84.92;101532.95;111081;1203;138954;-67
2024/01/26 03:17:48;;;;;;;16.60;3.40;;;;;;;4.70;84.87;101544.11;111099;1206;98985;-67
2024/01/26 03:20:14;;;;;;;13.40;2.80;;;;;;;4.67;84.77;101547.67;111147;1204;99166;-67
2024/01/26 03:22:40;;;;;;;18.90;3.30;;;;;;;4.68;84.96;101555.45;111058;1203;141409;-66
2024/01/26 03:25:07;;;;;;;23.60;3.40;;;;;;;4.72;85.14;101552.96;111102;1208;99114;-66
2024/01/26 03:27:32;;;;;;;21.50;3.10;;;;;;;4.75;85.06;101551.35;111036;1209;139520;-67
2024/01/26 03:29:58;;;;;;;13.80;3.10;;;;;;;4.75;85.08;101549.92;111161;1203;99158;-66
2024/01/26 03:32:24;;;;;;;19.00;3.20;;;;;;;4.75;85.01;101550.81;111117;1203;98950;-67
2024/01/26 03:34:49;;;;;;;17.10;2.70;;;;;;;4.73;85.03;101548.88;110945;1206;138895;-67
2024/01/26 03:37:15;;;;;;;14.50;2.80;;;;;;;4.70;84.94;101546.06;111194;1208;99022;-67
2024/01/26 03:39:40;;;;;;;21.20;3.40;;;;;;;4.72;85.19;101544.46;111002;1208;138810;-66
2024/01/26 03:42:06;;;;;;;15.70;3.40;;;;;;;4.75;85.24;101549.94;111238;1206;99047;-67
2024/01/26 03:44:32;;;;;;;21.10;3.50;;;;;;;4.76;85.17;101548.69;111266;1209;113313;-66
2024/01/26 03:46:57;;;;;;;22.00;3.80;;;;;;;4.78;85.24;101554.34;111020;1208;139916;-67
2024/01/26 03:49:22;;;;;;;18.40;3.50;;;;;;;4.74;85.02;101547.64;111169;1216;99036;-67
2024/01/26 03:51:47;;;;;;;19.90;4.00;;;;;;;4.71;85.15;101548.72;110933;1208;140111;-67
2024/01/26 03:54:12;;;;;;;16.40;4.60;;;;;;;4.70;85.11;101544.13;111150;1206;98921;-67
2024/01/26 03:56:38;;;;;;;14.20;2.80;;;;;;;4.72;85.23;101546.41;111048;1221;100633;-66
2024/01/26 03:59:04;;;;;;;21.10;3.50;;;;;;;4.73;85.26;101547.82;110923;1208;140321;-65
2024/01/26 04:01:29;;;;;;;19.40;3.70;;;;;;;4.74;85.21;101549.77;111142;1209;97854;-65
2024/01/26 04:03:55;;;;;;;19.80;3.40;;;;;;;4.72;85.30;101543.75;110907;1207;138664;-65
2024/01/26 04:06:20;;;;;;;18.40;3.10;;;;;;;4.71;85.31;101541.64;111085;1208;99642;-66
2024/01/26 04:08:46;;;;;;;18.20;3.30;;;;;;;4.71;85.24;101543.05;111062;1205;99303;-66
2024/01/26 04:11:11;;;;;;;19.20;3.60;;;;;;;4.71;85.32;101548.71;110924;1207;139053;-66
2024/01/26 04:13:36;;;;;;;20.50;3.40;;;;;;;4.68;85.24;101548.38;111058;1209;98954;-65
2024/01/26 04:16:01;;;;;;;29.20;3.40;;;;;;;4.64;85.20;101542.90;110929;1205;139545;-66
2024/01/26 04:18:27;;;;;;;17.10;3.00;;;;;;;4.64;85.20;101543.09;111085;1209;99076;-65
2024/01/26 04:20:52;;;;;;;23.30;3.70;;;;;;;4.64;85.34;101539.36;111010;1209;100262;-65
2024/01/26 04:23:17;;;;;;;21.70;3.70;;;;;;;4.62;85.23;101538.66;110955;1208;139821;-65
2024/01/26 04:25:43;;;;;;;17.20;3.30;;;;;;;4.60;85.30;101540.27;111047;1209;99035;-66
2024/01/26 04:28:08;;;;;;;13.30;3.10;;;;;;;4.61;85.53;101537.96;110959;1206;139308;-66
2024/01/26 04:30:39;;;;;;;20.80;4.50;;;;;;;4.62;85.50;101538.14;111035;1208;100991;-66
2024/01/26 04:33:06;;;;;;;24.70;3.50;;;;;;;4.61;85.31;101530.70;111076;1209;99076;-66
2024/01/26 04:35:31;;;;;;;24.00;5.20;;;;;;;4.55;85.35;101526.48;110931;1208;140034;-66
2024/01/26 04:37:56;;;;;;;28.40;5.30;;;;;;;4.54;85.57;101524.55;111170;1206;99402;-66
2024/01/26 04:40:23;;;;;;;21.60;3.70;;;;;;;4.50;85.48;101522.62;110907;1209;138503;-66
2024/01/26 04:42:48;;;;;;;18.60;3.40;;;;;;;4.49;85.35;101523.33;111018;1209;99024;-66
2024/01/26 04:45:14;;;;;;;9.30;2.80;;;;;;;4.46;85.38;101525.82;111109;1209;99089;-66
2024/01/26 04:47:39;;;;;;;19.70;3.80;;;;;;;4.44;85.64;101522.46;110968;1208;138828;-66
2024/01/26 04:50:06;;;;;;;14.80;2.90;;;;;;;4.43;85.31;101526.72;111049;1209;99296;-66
2024/01/26 04:52:31;;;;;;;15.30;2.90;;;;;;;4.42;85.50;101523.00;110941;1206;138600;-66
2024/01/26 04:54:57;;;;;;;22.60;3.90;;;;;;;4.44;85.59;101525.12;111160;1208;99022;-66
2024/01/26 04:57:22;;;;;;;17.00;3.00;;;;;;;4.45;85.64;101525.46;110979;1209;140438;-67
2024/01/26 04:59:48;;;;;;;15.90;2.90;;;;;;;4.46;85.63;101526.00;111057;1206;98921;-66
2024/01/26 05:02:13;;;;;;;22.20;3.30;;;;;;;4.48;85.57;101525.10;111011;1206;99053;-66
2024/01/26 05:04:38;;;;;;;20.40;2.80;;;;;;;4.49;85.48;101525.81;110875;1208;139085;-66
2024/01/26 05:07:04;;;;;;;11.40;4.00;;;;;;;4.48;85.52;101526.34;111161;1208;98951;-66
2024/01/26 05:09:29;;;;;;;22.40;3.40;;;;;;;4.46;85.67;101525.99;110960;1205;140015;-66
2024/01/26 05:11:55;;;;;;;11.60;3.50;;;;;;;4.43;85.47;101531.14;111081;1207;99028;-66
2024/01/26 05:14:21;;;;;;;27.30;3.10;;;;;;;4.43;85.63;101532.56;111067;1208;100244;-66
2024/01/26 05:16:47;;;;;;;18.00;3.00;;;;;;;4.43;85.53;101531.49;110893;1208;139417;-66
2024/01/26 05:19:12;;;;;;;17.70;3.40;;;;;;;4.42;85.70;101532.02;111164;1209;100321;-66
2024/01/26 05:21:39;;;;;;;14.00;2.90;;;;;;;4.43;85.60;101531.49;110922;1208;143292;-66
2024/01/26 05:24:05;;;;;;;26.50;3.00;;;;;;;4.44;85.65;101538.75;111072;1206;98941;-66
2024/01/26 05:26:31;;;;;;;16.50;3.10;;;;;;;4.42;85.66;101536.45;111055;1206;99046;-66
2024/01/26 05:28:57;;;;;;;20.90;2.80;;;;;;;4.41;85.58;101531.69;111004;1206;140210;-66
2024/01/26 05:31:22;;;;;;;18.90;2.80;;;;;;;4.41;85.53;101532.92;111062;1219;98807;-66
2024/01/26 05:33:47;;;;;;;16.50;2.40;;;;;;;4.42;85.57;101536.27;110883;1208;138930;-66
2024/01/26 05:36:12;;;;;;;17.40;2.50;;;;;;;4.44;85.81;101536.98;111184;1207;99018;-66
2024/01/26 05:38:38;;;;;;;11.60;3.50;;;;;;;4.48;85.85;101538.20;111123;1208;98961;-66
2024/01/26 05:41:04;;;;;;;13.40;3.30;;;;;;;4.49;85.57;101535.90;111082;1208;138729;-66
2024/01/26 05:43:30;;;;;;;18.90;3.50;;;;;;;4.46;85.40;101534.14;111100;1207;99148;-66
2024/01/26 05:45:56;;;;;;;14.90;3.30;;;;;;;4.46;85.73;101536.61;110959;1206;139094;-66
2024/01/26 05:48:21;;;;;;;13.30;3.50;;;;;;;4.49;85.78;101539.08;111114;1206;98932;-66
2024/01/26 05:50:47;;;;;;;16.20;3.60;;;;;;;4.52;85.65;101543.84;111011;1208;99038;-66
2024/01/26 05:53:12;;;;;;;14.50;3.10;;;;;;;4.48;85.45;101542.80;110941;1206;139167;-66
2024/01/26 05:55:38;;;;;;;22.20;4.10;;;;;;;4.46;85.58;101544.23;111067;1206;99793;-66
2024/01/26 05:58:03;;;;;;;10.60;3.40;;;;;;;4.43;85.45;101545.29;110927;1209;138927;-67
2024/01/26 06:00:28;;;;;;;14.20;2.40;;;;;;;4.43;85.46;101542.99;111081;1215;99026;-66
2024/01/26 06:02:53;;;;;;;13.60;2.80;;;;;;;4.44;85.51;101533.98;111017;1208;98928;-66
2024/01/26 06:05:19;;;;;;;13.10;2.90;;;;;;;4.44;85.43;101533.98;110959;1206;138702;-67
2024/01/26 06:07:44;;;;;;;18.00;3.20;;;;;;;4.44;85.41;101532.38;110977;1208;99919;-67
2024/01/26 06:10:10;;;;;;;7.90;2.50;;;;;;;4.45;85.40;101528.13;110958;1206;139122;-68
2024/01/26 06:12:40;;;;;;;10.70;3.20;;;;;;;4.44;85.45;101527.42;111036;1208;99473;-66
2024/01/26 06:15:11;;;;;;;18.80;3.60;;;;;;;4.47;85.48;101526.52;111076;1206;100487;-67
2024/01/26 06:17:36;;;;;;;21.80;4.20;;;;;;;4.50;85.41;101528.63;110981;1208;139040;-67
2024/01/26 06:20:04;;;;;;;14.00;3.30;;;;;;;4.49;85.27;101531.65;111020;1206;99041;-66
2024/01/26 06:22:30;;;;;;;14.10;3.30;;;;;;;4.49;85.49;101524.04;110884;1209;140562;-68
2024/01/26 06:24:55;;;;;;;16.50;3.70;;;;;;;4.49;85.30;101522.44;111054;1203;98982;-66
2024/01/26 06:27:21;;;;;;;12.80;2.80;;;;;;;4.50;85.37;101522.09;111047;1209;99020;-67
2024/01/26 06:29:47;;;;;;;17.90;3.40;;;;;;;4.48;85.18;101519.79;111193;1208;99007;-67
2024/01/26 06:32:12;;;;;;;12.20;3.10;;;;;;;4.45;84.99;101516.45;111081;1206;99205;-67
2024/01/26 06:34:40;;;;;;;10.60;3.00;;;;;;;4.45;85.13;101518.92;110841;1219;140203;-67
2024/01/26 06:37:05;;;;;;;14.40;3.50;;;;;;;4.44;85.11;101517.86;111028;1208;98944;-67
2024/01/26 06:39:32;;;;;;;15.40;3.50;;;;;;;4.44;85.05;101521.58;110921;1206;139156;-67
2024/01/26 06:41:58;;;;;;;15.60;3.80;;;;;;;4.41;85.12;101519.65;110968;1209;99040;-67
2024/01/26 06:44:23;;;;;;;22.10;4.10;;;;;;;4.40;85.02;101522.84;111048;1215;97758;-66
2024/01/26 06:46:48;;;;;;;14.90;3.40;;;;;;;4.40;85.15;101526.90;110859;1208;140020;-68
2024/01/26 06:49:13;;;;;;;16.30;4.00;;;;;;;4.41;85.12;101529.03;111190;1218;99424;-67
2024/01/26 06:51:38;;;;;;;20.70;4.10;;;;;;;4.42;84.98;101530.63;110918;1208;139253;-67
2024/01/26 06:54:04;;;;;;;15.60;3.80;;;;;;;4.42;85.10;101524.24;111111;1206;98953;-67
2024/01/26 06:56:29;;;;;;;17.40;3.80;;;;;;;4.45;84.99;101528.66;111037;1209;98993;-68
2024/01/26 06:58:55;;;;;;;16.90;4.00;;;;;;;4.47;84.90;101530.59;110863;1207;138562;-68
2024/01/26 07:01:20;;;;;;;17.40;3.80;;;;;;;4.48;85.06;101530.77;111063;1206;98948;-67
2024/01/26 07:03:45;;;;;;;21.40;3.40;;;;;;;4.50;85.10;101529.52;110839;1208;138846;-67
2024/01/26 07:06:10;;;;;;;21.10;3.60;;;;;;;4.51;84.91;101528.27;111039;1208;99030;-67
2024/01/26 07:08:36;;;;;;;9.90;3.30;;;;;;;4.53;84.94;101529.15;110948;1215;99018;-68
2024/01/26 07:11:01;;;;;;;11.60;3.30;;;;;;;4.57;85.14;101526.30;111053;1206;138935;-67
2024/01/26 07:13:26;;;;;;;18.70;4.50;;;;;;;4.60;85.03;101524.16;111088;1207;99937;-68
2024/01/26 07:15:52;;;;;;;17.80;3.50;;;;;;;4.60;85.06;101521.86;110896;1206;138947;-67
2024/01/26 07:18:17;;;;;;;20.30;3.50;;;;;;;4.63;85.21;101523.27;111146;1209;97858;-68
2024/01/26 07:20:42;;;;;;;15.20;4.80;;;;;;;4.63;84.87;101519.90;110972;1208;100381;-68
2024/01/26 07:23:07;;;;;;;17.10;4.40;;;;;;;4.63;84.89;101516.88;110952;1206;140793;-67
2024/01/26 07:25:33;;;;;;;20.90;4.20;;;;;;;4.63;84.87;101511.05;110497;1209;99838;-66
2024/01/26 07:27:58;;;;;;;13.40;4.70;;;;;;;4.60;84.79;101505.75;110853;1206;140393;-66
2024/01/26 07:30:23;;;;;;;20.10;4.80;;;;;;;4.58;84.76;101509.48;111096;1208;99034;-66
2024/01/26 07:32:49;;;;;;;23.50;4.60;;;;;;;4.56;84.63;101506.13;110935;1208;101124;-67
2024/01/26 07:35:14;;;;;;;17.20;5.00;;;;;;;4.55;84.85;101503.65;110887;1208;139086;-67
2024/01/26 07:37:40;;;;;;;17.00;4.80;;;;;;;4.54;84.62;101504.19;110897;1206;98946;-67
2024/01/26 07:40:08;;;;;;;24.40;6.60;;;;;;;4.52;84.77;101512.69;110935;1208;138952;-67
2024/01/26 07:42:34;;;;;;;17.80;5.60;;;;;;;4.53;84.72;101514.81;111165;1209;99997;-67
2024/01/26 07:45:00;;;;;;;25.40;6.70;;;;;;;4.52;84.88;101508.98;111077;1206;99020;-66
2024/01/26 07:47:26;;;;;;;31.70;7.20;;;;;;;4.54;84.80;101502.60;110937;1210;138873;-69
2024/01/26 07:49:51;;;;;;;24.10;6.70;;;;;;;4.52;84.86;101499.41;111052;1208;109373;-68
2024/01/26 07:52:17;;;;;;;25.70;6.20;;;;;;;4.51;84.87;101498.37;110933;1208;138968;-68
2024/01/26 07:54:42;;;;;;;29.30;5.90;;;;;;;4.49;84.73;101499.27;111062;1203;98913;-67
2024/01/26 07:57:08;;;;;;;22.10;6.60;;;;;;;4.47;84.73;101491.84;111003;1203;100196;-67
2024/01/26 07:59:33;;;;;;;19.60;5.70;;;;;;;4.48;84.88;101488.46;110864;1206;139501;-67
2024/01/26 08:01:58;;;;;;;20.40;5.10;;;;;;;4.48;84.81;101485.46;110972;1208;98931;-67
2024/01/26 08:04:23;;;;;;;25.20;6.30;;;;;;;4.45;84.70;101486.73;110800;1208;138715;-66
2024/01/26 08:06:49;;;;;;;22.00;5.80;;;;;;;4.44;84.78;101478.94;110944;1208;97993;-66
2024/01/26 08:09:14;;;;;;;22.40;4.90;;;;;;;4.44;85.06;101473.09;110929;1206;98970;-66
2024/01/26 08:11:39;;;;;;;21.00;5.70;;;;;;;4.44;85.03;101472.55;111558;1208;141478;-66
2024/01/26 08:14:05;;;;;;;26.80;5.20;;;;;;;4.46;85.04;101470.77;111662;1206;99608;-66
2024/01/26 08:16:30;;;;;;;23.20;7.10;;;;;;;4.49;85.13;101466.52;111589;1207;139084;-66
2024/01/26 08:18:55;;;;;;;27.90;6.90;;;;;;;4.47;85.02;101468.11;111050;1207;98978;-66
2024/01/26 08:21:21;;;;;;;24.00;7.40;;;;;;;4.48;85.13;101469.17;111081;1209;99303;-66
2024/01/26 08:23:47;;;;;;;18.10;5.60;;;;;;;4.48;85.07;101465.81;110930;1206;139600;-66
2024/01/26 08:26:13;;;;;;;29.40;7.00;;;;;;;4.48;85.08;101463.16;111130;1208;99021;-66
2024/01/26 08:28:38;;;;;;;30.70;5.60;;;;;;;4.49;85.13;101461.20;110859;1206;139086;-66
2024/01/26 08:31:05;;;;;;;20.30;5.80;;;;;;;4.50;85.19;101461.73;110933;1206;97896;-66
2024/01/26 08:33:30;;;;;;;24.40;6.10;;;;;;;4.51;85.11;101461.38;111121;1209;138872;-67
2024/01/26 08:35:55;;;;;;;21.10;7.00;;;;;;;4.52;85.46;101460.66;110970;1203;99053;-67
2024/01/26 08:38:21;;;;;;;20.20;5.80;;;;;;;4.53;85.28;101460.30;111047;1206;99257;-66
2024/01/26 08:40:46;;;;;;;22.10;6.10;;;;;;;4.55;85.21;101457.11;110908;1208;141061;-66
2024/01/26 08:43:11;;;;;;;20.60;6.70;;;;;;;4.59;85.42;101459.91;111167;1208;98709;-67
2024/01/26 08:45:37;;;;;;;20.90;6.40;;;;;;;4.60;85.42;101455.30;110933;1208;138845;-67
2024/01/26 08:48:03;;;;;;;31.60;7.00;;;;;;;4.58;85.40;101450.02;111056;1208;99002;-66
2024/01/26 08:50:28;;;;;;;26.90;5.40;;;;;;;4.54;85.19;101448.27;111313;1209;99120;-66
2024/01/26 08:52:53;;;;;;;25.60;6.00;;;;;;;4.55;85.51;101444.71;110902;1209;138457;-66
2024/01/26 08:55:18;;;;;;;17.20;5.80;;;;;;;4.57;85.49;101435.85;111185;1208;99175;-66
2024/01/26 08:57:45;;;;;;;30.40;7.30;;;;;;;4.56;85.40;101440.64;110965;1203;139000;-66
2024/01/26 09:00:12;;;;;;;28.00;7.70;;;;;;;4.50;85.35;101435.01;111110;1209;99158;-67
2024/01/26 09:02:38;;;;;;;33.10;8.00;;;;;;;4.50;85.55;101440.67;111117;1203;98947;-67
2024/01/26 09:05:06;;;;;;;34.10;8.40;;;;;;;4.54;85.52;101441.71;110983;1203;138678;-67
2024/01/26 09:07:31;;;;;;;20.40;6.50;;;;;;;4.56;85.72;101440.29;111049;1203;99069;-67
2024/01/26 09:09:57;;;;;;;24.60;6.20;;;;;;;4.57;85.75;101439.39;110981;1208;139242;-67
2024/01/26 09:12:23;;;;;;;29.20;7.10;;;;;;;4.57;85.68;101436.20;110953;1208;98997;-68
2024/01/26 09:14:48;;;;;;;27.50;8.60;;;;;;;4.56;85.62;101429.13;110718;1207;98984;-68
2024/01/26 09:17:14;;;;;;;34.40;7.70;;;;;;;4.58;85.74;101425.05;111159;1205;139811;-68
2024/01/26 09:19:39;;;;;;;16.60;6.40;;;;;;;4.60;85.78;101425.57;111099;1207;99121;-68
2024/01/26 09:22:06;;;;;;;25.90;7.00;;;;;;;4.62;85.94;101424.85;111030;1203;138874;-68
2024/01/26 09:24:32;;;;;;;29.00;7.90;;;;;;;4.66;85.91;101420.92;111014;1203;99028;-67
2024/01/26 09:26:57;;;;;;;29.00;8.00;;;;;;;4.72;85.95;101413.80;111137;1203;101748;-68
2024/01/26 09:29:23;;;;;;;27.10;7.20;;;;;;;4.75;85.91;101405.99;110962;1208;139323;-67
2024/01/26 09:31:50;;;;;;;27.80;7.10;;;;;;;4.79;86.12;101398.00;111084;1206;98918;-68
2024/01/26 09:34:15;;;;;;;25.50;7.10;;;;;;;4.82;86.03;101395.48;110960;1213;138652;-68
2024/01/26 09:36:41;;;;;;;28.40;8.30;;;;;;;4.85;85.97;101394.41;111000;1203;99027;-67
2024/01/26 09:39:07;;;;;;;29.40;7.40;;;;;;;4.87;86.13;101391.55;111107;1203;98941;-67
2024/01/26 09:41:32;;;;;;;26.90;6.40;;;;;;;4.92;86.12;101386.56;111044;1206;138703;-68
2024/01/26 09:43:58;;;;;;;19.20;5.70;;;;;;;4.96;86.27;101386.52;111085;1206;99986;-68
2024/01/26 09:46:24;;;;;;;32.60;6.80;;;;;;;4.99;86.30;101391.81;110914;1206;138585;-67
2024/01/26 09:48:54;;;;;;;24.90;6.80;;;;;;;5.02;86.20;101396.92;111098;1206;99057;-68
2024/01/26 09:51:20;;;;;;;29.70;7.20;;;;;;;5.04;86.27;101396.73;111112;1208;112420;-68
2024/01/26 09:53:47;;;;;;;23.10;6.50;;;;;;;5.07;86.23;101390.86;110881;1209;138791;-67
2024/01/26 09:56:12;;;;;;;24.30;7.70;;;;;;;5.09;86.27;101373.13;111153;1208;98918;-68
2024/01/26 09:58:38;;;;;;;19.90;6.50;;;;;;;5.11;86.27;101362.30;111023;1206;138859;-68
2024/01/26 10:01:05;;;;;;;21.90;6.50;;;;;;;5.13;86.33;101364.40;111014;1208;99208;-68
2024/01/26 10:03:32;;;;;;;28.80;8.60;;;;;;;5.16;86.45;101361.54;111003;1209;138853;-68
2024/01/26 10:05:58;;;;;;;31.60;8.10;;;;;;;5.19;86.23;101357.43;111090;1204;98944;-68
2024/01/26 10:08:23;;;;;;;28.70;7.60;;;;;;;5.25;86.41;101348.84;111157;1206;99450;-68
2024/01/26 10:10:48;;;;;;;25.10;7.10;;;;;;;5.29;86.55;101348.09;110919;1206;138750;-67
2024/01/26 10:13:15;;;;;;;14.10;5.60;;;;;;;5.30;86.44;101346.66;111025;1209;99987;-67
2024/01/26 10:15:40;;;;;;;27.90;6.30;;;;;;;5.33;86.44;101338.13;110964;1208;139220;-67
2024/01/26 10:18:06;;;;;;;24.40;6.20;;;;;;;5.36;86.37;101330.83;111120;1206;99422;-68
2024/01/26 10:20:31;;;;;;;24.60;6.10;;;;;;;5.38;86.39;101321.41;111073;1208;99082;-68
2024/01/26 10:22:56;;;;;;;22.10;6.70;;;;;;;5.41;86.55;101310.92;111027;1208;139385;-67
2024/01/26 10:25:21;;;;;;;24.80;6.00;;;;;;;5.48;86.55;101309.41;111055;1206;99047;-67
2024/01/26 10:27:47;;;;;;;19.60;5.50;;;;;;;5.52;86.56;101300.85;111012;1206;139272;-68
2024/01/26 10:30:13;;;;;;;22.60;5.80;;;;;;;5.59;86.55;101300.25;111051;1209;99354;-67
2024/01/26 10:32:39;;;;;;;32.80;6.90;;;;;;;5.63;86.59;101298.77;110972;1209;98899;-68
2024/01/26 10:35:07;;;;;;;32.40;8.00;;;;;;;5.68;86.50;101290.92;110888;1209;145095;-68
2024/01/26 10:37:35;;;;;;;26.80;8.80;;;;;;;5.72;86.49;101284.83;111085;1208;98947;-68
2024/01/26 10:40:04;;;;;;;27.80;7.70;;;;;;;5.76;86.40;101281.94;110927;1208;139172;-67
2024/01/26 10:42:33;;;;;;;32.10;7.70;;;;;;;5.82;86.58;101281.33;111129;1204;107486;-67
2024/01/26 10:45:01;;;;;;;30.40;8.30;;;;;;;5.86;86.58;101279.13;111060;1208;101903;-68
2024/01/26 10:47:27;;;;;;;30.00;9.10;;;;;;;5.92;86.56;101275.90;110960;1206;139468;-68
2024/01/26 10:49:54;;;;;;;27.90;7.40;;;;;;;5.96;86.61;101270.88;111095;1206;97833;-68
2024/01/26 10:52:23;;;;;;;30.30;8.30;;;;;;;6.01;86.69;101268.31;111042;1206;137862;-68
2024/01/26 10:54:51;;;;;;;27.20;8.20;;;;;;;6.04;86.49;101257.81;110632;1208;108782;-68
2024/01/26 10:57:19;;;;;;;29.70;7.20;;;;;;;6.07;86.47;101252.44;111409;1208;100668;-69
2024/01/26 10:59:47;;;;;;;21.10;6.70;;;;;;;6.10;86.44;101248.48;111523;1209;138958;-68
2024/01/26 11:02:24;;;;;;;25.50;8.10;;;;;;;6.15;86.54;101241.48;111580;1206;99437;-68
2024/01/26 11:04:50;;;;;;;32.50;6.70;;;;;;;6.18;86.52;101232.58;111449;1206;138732;-68
2024/01/26 11:07:17;;;;;;;21.20;6.50;;;;;;;6.23;86.45;101218.48;111538;1206;99174;-68